• Join FlightAware (Why Join?)
  • Login
  • US Flag 
05:06AM EDT


 

Airport Tracker/Info


-or-


 

Live Flight TrackerFlight Track Log ✈ N865JM ✈ 22-Jan-2014 ✈ KTEB - KPBI

Flight Track Log - Related Links

Times and Time Zones

All times are in EST time to prevent confusion due to time zone crossing. See the N865JM flight status page for this flight to view local times or setup timezone preferences in your user account.

Time Position Orientation Groundspeed Altitude Reporting Facility
EST Latitude Longitude Course Direction KTS MPH feet Rate Location/Type
05:14PM 40.8833 -74.0500 21° North 177 204 1,800  Level New York TRACON
05:14PM 40.9167 -74.0333 21° North 227 261 2,900 1,080 Climbing New York TRACON
05:15PM 40.9167 -74.1167 270° West 271 312 3,900 1,500 Climbing New York TRACON
05:16PM 40.8333 -74.1500 197° South 276 318 6,000 1,980 Climbing New York TRACON
05:17PM 40.7667 -74.1833 201° Southwest 280 322 7,900 1,860 Climbing New York TRACON
05:19PM 40.7000 -74.2333 210° Southwest 277 319 10,000 2,700 Climbing New York TRACON
05:19PM 40.6333 -74.2667 201° Southwest 310 357 13,400 3,300 Climbing New York TRACON
05:20PM 40.5333 -74.2667 180° South 363 418 16,300 1,800 Climbing New York TRACON
05:21PM 40.4167 -74.2667 180° South 389 448 17,000 300 Climbing New York TRACON
05:23PM 40.2872 -74.2592 177° South 370 426 17,000  Level New York Center
05:24PM 40.1933 -74.2572 179° South 370 426 17,000 900 Level New York Center
05:25PM 40.0956 -74.2522 178° South 359 413 18,800 1,380 Climbing New York Center
05:27PM 39.9133 -74.3417 201° Southwest 350 403 21,200 1,500 Climbing Washington Center
05:28PM 39.8267 -74.4217 215° Southwest 367 422 23,300 2,220 Climbing Washington Center
05:29PM 39.7503 -74.5228 226° Southwest 388 447 25,700 2,340 Climbing Washington Center
05:30PM 39.6742 -74.6236 226° Southwest 393 452 28,100 1,920 Climbing Washington Center
05:31PM 39.5978 -74.7244 226° Southwest 393 452 29,600 1,440 Climbing Washington Center
05:32PM 39.5297 -74.8114 225° Southwest 393 452 31,000 1,320 Climbing Washington Center
05:33PM 39.4533 -74.9142 226° Southwest 393 452 32,400 1,320 Climbing Washington Center
05:34PM 39.3767 -75.0117 225° Southwest 388 447 33,700 1,260 Climbing Washington Center
05:35PM 39.3000 -75.1089 224° Southwest 388 447 34,900 1,140 Climbing Washington Center
05:36PM 39.2022 -75.1658 204° Southwest 383 441 36,000 540 Climbing Washington Center
05:37PM 39.0961 -75.2225 203° Southwest 396 456 36,000  Level Washington Center
05:38PM 38.9878 -75.2764 201° Southwest 413 475 36,000  Level Washington Center
05:39PM 38.8817 -75.3356 203° Southwest 419 482 36,000  Level Washington Center
05:40PM 38.7733 -75.3892 201° Southwest 419 482 36,000  Level Washington Center
05:41PM 38.6672 -75.4481 203° Southwest 419 482 36,000  Level Washington Center
05:42PM 38.5589 -75.5014 201° Southwest 414 476 36,000  Level Washington Center
05:43PM 38.4547 -75.5572 203° Southwest 414 476 36,000  Level Washington Center
05:44PM 38.3461 -75.6103 201° Southwest 414 476 36,000  Level Washington Center
05:45PM 38.2294 -75.6658 201° Southwest 414 476 36,000  Level Washington Center
05:46PM 38.1231 -75.7183 201° Southwest 414 476 36,000  Level Washington Center
05:47PM 38.0208 -75.7789 205° Southwest 414 476 36,000  Level Washington Center
05:48PM 37.9122 -75.8286 200° South 414 476 36,000  Level Washington Center
05:49PM 37.8058 -75.8808 201° Southwest 414 476 36,000  Level Washington Center
05:50PM 37.7139 -75.9358 205° Southwest 409 471 36,000  Level Washington Center
05:51PM 37.6094 -75.9878 202° Southwest 409 471 36,000  Level Washington Center
05:52PM 37.5069 -76.0394 202° Southwest 403 464 36,000  Level Washington Center
05:53PM 37.4047 -76.0911 202° Southwest 403 464 36,000  Level Washington Center
05:54PM 37.2897 -76.1453 201° Southwest 403 464 36,000  Level Washington Center
05:55PM 37.1850 -76.1942 200° South 403 464 36,000  Level Washington Center
05:56PM 37.0806 -76.2453 201° Southwest 403 464 36,000  Level Washington Center
05:57PM 36.9800 -76.2992 203° Southwest 403 464 36,000  Level Washington Center
05:58PM 36.8756 -76.3475 200° South 403 464 36,000  Level Washington Center
05:59PM 36.7731 -76.3983 202° Southwest 403 464 36,000 -60 Level Washington Center
06:00PM 36.6808 -76.4467 203° Southwest 398 458 35,900  Descending Washington Center
06:01PM 36.5783 -76.4972 202° Southwest 398 458 36,000  Climbing Washington Center
06:02PM 36.4797 -76.5453 201° Southwest 398 458 36,000  Level Washington Center
06:03PM 36.3792 -76.5931 201° Southwest 393 452 36,000  Level Washington Center
06:04PM 36.2808 -76.6406 201° Southwest 398 458 36,000  Level Washington Center
06:05PM 36.1803 -76.6883 201° Southwest 398 458 36,000  Level Washington Center
06:06PM 36.0817 -76.7383 202° Southwest 398 458 36,000  Level Washington Center
06:07PM 35.9811 -76.7831 200° South 392 451 36,000  Level Washington Center
06:08PM 35.8806 -76.8328 202° Southwest 392 451 36,000  Level Washington Center
06:09PM 35.7758 -76.8694 196° South 392 451 36,000  Level Washington Center
06:10PM 35.6689 -76.9114 198° South 392 451 36,000  Level Washington Center
06:11PM 35.5558 -76.9528 197° South 391 450 36,000  Level Washington Center
06:12PM 35.4511 -76.9919 197° South 391 450 36,000  Level Washington Center
06:13PM 35.3442 -77.0308 197° South 401 461 36,000  Level Washington Center
06:14PM 35.2372 -77.0719 197° South 401 461 36,000  Level Washington Center
06:15PM 35.1303 -77.1108 197° South 401 461 36,000  Level Washington Center
06:16PM 35.0169 -77.1544 197° South 401 461 36,000  Level Washington Center
06:17PM 34.9103 -77.1928 196° South 409 471 36,000  Level Washington Center
06:18PM 34.8053 -77.2336 198° South 409 471 36,000  Level Washington Center
06:19PM 34.6961 -77.2744 197° South 404 465 36,000  Level Washington Center
06:20PM 34.5914 -77.3128 197° South 404 465 36,000  Level Washington Center
06:22PM 34.3858 -77.3878 197° South 380 437 36,000  Level Jacksonville Center
06:23PM 34.2811 -77.4244 196° South 385 443 36,000  Level Jacksonville Center
06:24PM 34.1744 -77.4639 197° South 396 456 36,000  Level Jacksonville Center
06:25PM 34.0572 -77.5036 196° South 396 456 36,000  Level Jacksonville Center
06:26PM 33.9503 -77.5403 196° South 395 455 36,000  Level Jacksonville Center
06:27PM 33.8414 -77.5819 198° South 395 455 36,000  Level Jacksonville Center
06:28PM 33.7367 -77.6208 197° South 395 455 36,000  Level Jacksonville Center
06:29PM 33.6317 -77.6569 196° South 395 455 36,000  Level Jacksonville Center
06:30PM 33.5228 -77.6958 197° South 395 455 36,000  Level Jacksonville Center
06:31PM 33.4181 -77.7342 197° South 395 455 36,000  Level Jacksonville Center
06:32PM 33.3111 -77.7728 197° South 395 455 36,000  Level Jacksonville Center
06:33PM 33.2039 -77.8089 196° South 395 455 36,000  Level Jacksonville Center
06:34PM 33.1011 -77.8469 197° South 395 455 36,000  Level Jacksonville Center
06:35PM 32.9942 -77.8825 196° South 395 455 36,000  Level Jacksonville Center
06:36PM 32.8892 -77.9206 197° South 395 455 36,000  Level Jacksonville Center
06:37PM 32.7822 -77.9586 197° South 395 455 36,000  Level Jacksonville Center
06:38PM 32.6750 -77.9964 197° South 395 455 36,000  Level Jacksonville Center
06:39PM 32.5700 -78.0317 196° South 395 455 36,000  Level Jacksonville Center
06:40PM 32.4650 -78.0694 197° South 395 455 36,000  Level Jacksonville Center
06:41PM 32.3578 -78.1022 194° South 395 455 36,000  Level Jacksonville Center
06:42PM 32.2528 -78.1394 197° South 395 455 36,000  Level Jacksonville Center
06:43PM 32.1456 -78.1744 195° South 395 455 36,000  Level Jacksonville Center
06:44PM 32.0406 -78.2167 199° South 395 455 36,000  Level Jacksonville Center
06:45PM 31.9331 -78.2467 193° South 395 455 36,000  Level Jacksonville Center
06:46PM 31.8367 -78.2881 200° South 402 463 36,000  Level Jacksonville Center
06:47PM 31.7294 -78.3278 197° South 402 463 36,000  Level Jacksonville Center
06:48PM 31.6200 -78.3622 195° South 402 463 36,000  Level Jacksonville Center
06:49PM 31.5086 -78.4019 197° South 402 463 36,000  Level Jacksonville Center
06:50PM 31.4033 -78.4336 194° South 408 470 36,000  Level Jacksonville Center
06:51PM 31.2919 -78.4731 197° South 414 476 36,000  Level Jacksonville Center
06:52PM 31.1828 -78.5122 197° South 414 476 36,000  Level Jacksonville Center
06:53PM 31.0714 -78.5514 197° South 414 476 36,000  Level Jacksonville Center
06:54PM 30.9642 -78.5878 196° South 414 476 36,000  Level Jacksonville Center
06:55PM 30.8506 -78.6219 194° South 416 479 36,000  Level Jacksonville Center
06:56PM 30.7431 -78.6606 197° South 411 473 36,000  Level Jacksonville Center
06:57PM 30.6294 -78.6969 195° South 416 479 36,000  Level Jacksonville Center
06:57PM 30.5642 -78.7222 198° South 412 474 36,000  Level Miami Center
06:58PM 30.4531 -78.7611 197° South 407 468 36,000  Level Miami Center
06:59PM 30.3422 -78.8022 198° South 412 474 36,000  Level Miami Center
07:00PM 30.2292 -78.8411 197° South 417 480 36,000  Level Miami Center
07:01PM 30.1200 -78.8822 198° South 422 486 36,000  Level Miami Center
07:02PM 30.0111 -78.9208 197° South 422 486 36,000  Level Miami Center
07:03PM 29.9064 -78.9619 199° South 416 479 36,000  Level Miami Center
07:04PM 29.7931 -78.9956 194° South 416 479 36,000  Level Miami Center
07:05PM 29.6739 -79.0172 189° South 422 486 36,000  Level Miami Center
07:06PM 29.5569 -79.0411 190° South 431 496 36,000  Level Miami Center
07:07PM 29.4397 -79.0625 189° South 431 496 36,000  Level Miami Center
07:08PM 29.3122 -79.0839 188° South 425 489 36,000 -60 Level Miami Center
07:09PM 29.1950 -79.1075 190° South 430 495 35,900 -780 Descending Miami Center
07:10PM 29.0778 -79.1267 188° South 430 495 34,500 -1,380 Descending Miami Center
07:11PM 28.9647 -79.1481 189° South 425 489 33,200 -1,260 Descending Miami Center
07:12PM 28.8497 -79.1694 189° South 425 489 32,000 -1,200 Descending Miami Center
07:13PM 28.7283 -79.1881 188° South 432 497 30,800 -1,200 Descending Miami Center
07:14PM 28.6069 -79.2117 190° South 438 504 29,600 -1,260 Descending Miami Center
07:15PM 28.4833 -79.2350 189° South 445 512 28,300 -1,200 Descending Miami Center
07:16PM 28.3600 -79.2583 189° South 451 519 27,200 -1,200 Descending Miami Center
07:17PM 28.2383 -79.2817 190° South 451 519 25,900 -1,260 Descending Miami Center
07:18PM 28.1211 -79.3028 189° South 446 513 24,700 -1,200 Descending Miami Center
07:19PM 28.0039 -79.3236 189° South 435 501 23,500 -1,380 Descending Miami Center
07:20PM 27.8889 -79.3422 188° South 429 494 22,000 -1,620 Descending Miami Center
07:21PM 27.7842 -79.3636 190° South 408 470 20,300 -1,680 Descending Miami Center
07:22PM 27.6856 -79.3800 188° South 407 468 18,700 -1,620 Descending Miami Center
07:23PM 27.5744 -79.4011 190° South 407 468 17,100 -1,560 Descending Miami Center
07:24PM 27.4672 -79.4503 202° Southwest 407 468 15,600 -1,680 Descending Miami Center
07:25PM 27.3989 -79.5328 227° Southwest 374 430 13,800 -1,620 Descending Miami Center
07:26PM 27.3325 -79.6203 230° Southwest 369 425 12,400 -1,260 Descending Miami Center
07:27PM 27.2875 -79.6800 230° Southwest 323 372 11,300 -1,140 Descending Miami Center
07:28PM 27.2403 -79.7419 229° Southwest 285 328 10,200 -1,200 Descending Miami Center
07:29PM 27.1889 -79.8131 231° Southwest 273 314 9,000 -1,140 Descending Miami Center
07:30PM 27.1394 -79.8722 227° Southwest 273 314 8,000 -840 Descending Miami Center
07:31PM 27.0781 -79.9128 210° Southwest 263 303 7,400 -1,020 Descending Miami Center
07:32PM 27.0231 -79.9439 207° Southwest 256 295 6,000 -1,500 Descending Miami Center
07:33PM 26.9578 -79.9794 206° Southwest 256 295 4,500 -1,020 Descending Miami Center
07:34PM 26.8828 -79.9706 174° South 246 283 4,000 -300 Descending Miami Center
07:35PM 26.8183 -79.9572 170° South 238 274 4,000  Level Miami Center
07:37PM 26.7232 -80.0547 265° West  Level Estimated
07:44PM 26.6832 -80.0956 110° East  Level Estimated
07:45PM 26.6832 -80.0956 110° East  Level Estimated
07:46PM 26.6832 -80.0956 110° East  Level Estimated
07:47PM 26.6832 -80.0956 110° East  Level Estimated
07:48PM 26.6832 -80.0956 110° East  Level Estimated
07:49PM 26.6832 -80.0956 110° East  Level Estimated
07:50PM 26.6832 -80.0956 110° East  Level Estimated
07:51PM 26.6832 -80.0956 110° East  Level Estimated